Aviation Digital Data Service (ADDS)

Output produced by METARs form (0148 UTC 27 April 2015)
found at http://aviationweather.gov/adds/metars/
 
KILG 262328Z 2700/2724 15007KT P6SM SCT080 
     FM270300 29005KT P6SM SCT080 
     FM271300 31012KT P6SM BKN070 
     FM271600 32014G22KT P6SM BKN050 
     FM272300 32012KT P6SM SCT070